Fairbanks International, AK

4:18 PM AKDT on August 27, 2014 (GMT -0800)
Gilmore Trail | Change Station
CLOSE
Current Station
Personal Weather Station
Location: Fairbanks, AK
Elevation: 1545 ft
Nearby Weather Stations

Elev 1545 ft 64.92 °N, 147.57 °W | Updated 9 seconds ago

Mostly Cloudy
Mostly Cloudy
57.4 °F
Feels Like 57.4 °F
N
0.0
Wind Variable Wind from SSW
Gusts 6.0 mph

Today
High -- | Low -- °F
--% Chance of Precip.
Yesterday
High -- | Low -- °F
Precip. -- in
6:16 AM 9:26 PM
Waxing Crescent, 5% visible
Pressure 29.77 in
Visibility 10.0 miles
Clouds Scattered Clouds 3500 ft
Scattered Clouds 6000 ft
Mostly Cloudy 11000 ft
Mostly Cloudy 16000 ft
Dew Point 48 °F
Humidity 72%
Rainfall 0.05 in
Snow Depth Not available.
UV 2 out of 12
Pollen Not available.
Air Quality Not available.
Flu Activity Not available.
METAR PAFA 272353Z 05003KT 10SM SCT035 SCT060 BKN110 BKN160 17/08 A2976 RMK AO2 SLP081 T01670078 10178 20117 56015

More Conditions Fewer Conditions

Pressure 29.77 in
Visibility 10.0 miles
Clouds Scattered Clouds 3500 ft
Scattered Clouds 6000 ft
Mostly Cloudy 11000 ft
Mostly Cloudy 16000 ft
Dew Point 48 °F
Humidity 72%
Rainfall 0.05 in
Snow Depth Not available.
UV 2 out of 12
Pollen Not available.
Air Quality Not available.
Flu Activity Not available.
METAR PAFA 272353Z 05003KT 10SM SCT035 SCT060 BKN110 BKN160 17/08 A2976 RMK AO2 SLP081 T01670078 10178 20117 56015

More Conditions Fewer Conditions

10-Day Weather Forecast

Almanac

Astronomy

Aug. 27, 2014 Rise Set
Actual Time 6:16 AM AKDT 9:26 PM AKDT
Civil Twilight 5:18 AM AKDT 10:24 PM AKDT
Nautical Twilight 3:50 AM AKDT 11:49 PM AKDT
Astronomical Twilight Sun does not rise Sun does not rise
Moon 9:24 AM AKDT (8/27) 9:12 PM AKDT (8/27)
Length of Visible Light 17h 05m
Length of Day
15h 10m
Tomorrow will be 6m 45s shorter.
Waxing Crescent, 5% of the Moon is Illuminated
Today
Waxing Crescent
Sep 2
First Quarter
Sep 8
Full
Sep 15
Last Quarter
Sep 24
New

Today's Extremes

State Highs State Lows

Community

WunderPhotos

Upload Photos

1,747,830 photos uploaded!

Nearby

Snow Depth

Station Depth Elevation
Little Chena Ridge 1 in 2000 ft
Munson Ridge 1 in 3100 ft
Monument Creek 0 in 1850 ft
Eagle Summit 0 in 3650 ft
Upper Chena 1 in 2850 ft

Earthquake Activity

City Distance Mag. Time & Date
No recent earthquake activity has been reported nearby.
Minimum magnitude displayed is 2.5.

Coastal Water Temperatures

Place Temperature
No Stations Reporting

Nearby Weather Stations